Terminal Aerodrome Forecast
Issued by NWS Jackson, KY

Home | Current Version | Previous Version | Text Only | Print | Product List | Glossary On
Versions: 1 2 3 4 5 6 7 8 9 10 11 12 13 14 15 16
000
FTUS43 KJKL 280500 RRA
TAFLOZ
TAF
KLOZ 280542Z 2806/2906 26004KT P6SM VCSH SCT015 OVC025
     FM280700 28004KT 5SM -RA BR SCT007 OVC010
     FM281200 30003KT 3SM -RA BR BKN007 OVC015
     FM281500 34004KT 2SM -RA BR OVC007=

USA.gov is the U.S. government's official web portal to all federal, state and local government web resources and services.